CSHVD LPCS-LPCS
Flight info
| Callsign | CSHVD |
|---|---|
| Flight time | 0h 27m |
| Altitude | 1500 |
| Route | CCAIS DCT CROCA DCT ERICE DCT PPENA |
| Aircraft | H269/L-VGD/C |
Departure
| Time | 2026-04-28 18:41 |
|---|---|
| Airport | Cascais Airport (LPCS) |
Arrival
| Time | 2026-04-28 19:08 |
|---|---|
| Airport | Cascais Airport (LPCS) |
| Time | Latitude | Longitude | Altitude | Speed | Heading |
|---|---|---|---|---|---|
| 2026-04-28 18:26 | 38.72301 | -9.35779 | 312 ft | 0 kts | 86° |
| 2026-04-28 18:37 | 38.72300 | -9.35779 | 312 ft | 1 kts | 82° |
| 2026-04-28 18:38 | 38.72295 | -9.35772 | 316 ft | 0 kts | 108° |
| 2026-04-28 18:38 | 38.72290 | -9.35745 | 317 ft | 3 kts | 87° |
| 2026-04-28 18:38 | 38.72298 | -9.35714 | 322 ft | 6 kts | 84° |
| 2026-04-28 18:38 | 38.72308 | -9.35679 | 319 ft | 5 kts | 86° |
| 2026-04-28 18:39 | 38.72317 | -9.35634 | 321 ft | 6 kts | 86° |
| 2026-04-28 18:39 | 38.72330 | -9.35579 | 322 ft | 6 kts | 86° |
| 2026-04-28 18:39 | 38.72342 | -9.35524 | 323 ft | 6 kts | 84° |
| 2026-04-28 18:39 | 38.72345 | -9.35495 | 321 ft | 5 kts | 88° |
| 2026-04-28 18:40 | 38.72385 | -9.35468 | 334 ft | 17 kts | 5° |
| 2026-04-28 18:40 | 38.72628 | -9.35556 | 405 ft | 52 kts | 331° |
| 2026-04-28 18:40 | 38.73009 | -9.35676 | 476 ft | 58 kts | 341° |
| 2026-04-28 18:40 | 38.73391 | -9.35802 | 606 ft | 52 kts | 340° |
| 2026-04-28 18:41 | 38.73676 | -9.35848 | 874 ft | 36 kts | 357° |
| 2026-04-28 18:41 | 38.73987 | -9.36007 | 919 ft | 58 kts | 311° |
| 2026-04-28 18:41 | 38.74231 | -9.36502 | 908 ft | 63 kts | 302° |
| 2026-04-28 18:41 | 38.74488 | -9.36894 | 1069 ft | 56 kts | 312° |
| 2026-04-28 18:42 | 38.74729 | -9.37342 | 1068 ft | 67 kts | 294° |
| 2026-04-28 18:42 | 38.74860 | -9.37957 | 1018 ft | 68 kts | 283° |
| 2026-04-28 18:42 | 38.74966 | -9.38469 | 1208 ft | 50 kts | 295° |
| 2026-04-28 18:42 | 38.75142 | -9.38917 | 1264 ft | 62 kts | 293° |
| 2026-04-28 18:43 | 38.75276 | -9.39470 | 1268 ft | 69 kts | 287° |
| 2026-04-28 18:43 | 38.75412 | -9.40052 | 1269 ft | 69 kts | 287° |
| 2026-04-28 18:43 | 38.75536 | -9.40658 | 1240 ft | 70 kts | 284° |
| 2026-04-28 18:43 | 38.75645 | -9.41277 | 1196 ft | 73 kts | 278° |
| 2026-04-28 18:44 | 38.75688 | -9.41930 | 1167 ft | 74 kts | 269° |
| 2026-04-28 18:44 | 38.75670 | -9.43053 | 1350 ft | 62 kts | 275° |
| 2026-04-28 18:44 | 38.75682 | -9.43617 | 1399 ft | 63 kts | 274° |
| 2026-04-28 18:45 | 38.75718 | -9.44192 | 1392 ft | 66 kts | 277° |
| 2026-04-28 18:45 | 38.75799 | -9.44798 | 1378 ft | 70 kts | 281° |
| 2026-04-28 18:45 | 38.75891 | -9.45369 | 1413 ft | 67 kts | 284° |
| 2026-04-28 18:45 | 38.76032 | -9.45969 | 1347 ft | 70 kts | 291° |
| 2026-04-28 18:46 | 38.76244 | -9.46513 | 1354 ft | 66 kts | 297° |
| 2026-04-28 18:46 | 38.76453 | -9.47092 | 1268 ft | 71 kts | 291° |
| 2026-04-28 18:46 | 38.76677 | -9.47619 | 1321 ft | 65 kts | 304° |
| 2026-04-28 18:46 | 38.76975 | -9.47991 | 1429 ft | 56 kts | 324° |
| 2026-04-28 18:47 | 38.77320 | -9.48282 | 1434 ft | 68 kts | 309° |
| 2026-04-28 18:47 | 38.77581 | -9.48827 | 1362 ft | 72 kts | 294° |
| 2026-04-28 18:47 | 38.77809 | -9.49431 | 1250 ft | 76 kts | 295° |
| 2026-04-28 18:47 | 38.78223 | -9.49776 | 1220 ft | 69 kts | 346° |
| 2026-04-28 18:48 | 38.78645 | -9.49523 | 1285 ft | 74 kts | 34° |
| 2026-04-28 18:48 | 38.79005 | -9.49071 | 1385 ft | 68 kts | 33° |
| 2026-04-28 18:48 | 38.79453 | -9.48784 | 1321 ft | 77 kts | 7° |
| 2026-04-28 18:48 | 38.79997 | -9.48648 | 1181 ft | 78 kts | 0° |
| 2026-04-28 18:49 | 38.80537 | -9.48411 | 961 ft | 90 kts | 7° |
| 2026-04-28 18:49 | 38.80922 | -9.48292 | 921 ft | 79 kts | 6° |
| 2026-04-28 18:49 | 38.81508 | -9.47775 | 906 ft | 77 kts | 30° |
| 2026-04-28 18:49 | 38.81968 | -9.47391 | 857 ft | 78 kts | 18° |
| 2026-04-28 18:50 | 38.82476 | -9.47110 | 782 ft | 78 kts | 12° |
| 2026-04-28 18:50 | 38.82967 | -9.46840 | 775 ft | 73 kts | 16° |
| 2026-04-28 18:50 | 38.83401 | -9.46527 | 818 ft | 72 kts | 20° |
| 2026-04-28 18:50 | 38.83823 | -9.46206 | 894 ft | 70 kts | 25° |
| 2026-04-28 18:51 | 38.84243 | -9.45866 | 932 ft | 69 kts | 19° |
| 2026-04-28 18:51 | 38.84684 | -9.45548 | 936 ft | 74 kts | 21° |
| 2026-04-28 18:51 | 38.85143 | -9.45274 | 1007 ft | 73 kts | 18° |
| 2026-04-28 18:51 | 38.85623 | -9.45030 | 1030 ft | 74 kts | 11° |
| 2026-04-28 18:52 | 38.86132 | -9.44862 | 1010 ft | 78 kts | 5° |
| 2026-04-28 18:52 | 38.86673 | -9.44801 | 1007 ft | 75 kts | 359° |
| 2026-04-28 18:52 | 38.87164 | -9.44599 | 1055 ft | 75 kts | 19° |
| 2026-04-28 18:52 | 38.87631 | -9.44262 | 1107 ft | 76 kts | 22° |
| 2026-04-28 18:53 | 38.88129 | -9.43953 | 1040 ft | 82 kts | 14° |
| 2026-04-28 18:53 | 38.88681 | -9.43767 | 920 ft | 85 kts | 5° |
| 2026-04-28 18:53 | 38.89219 | -9.43578 | 939 ft | 76 kts | 12° |
| 2026-04-28 18:53 | 38.89718 | -9.43332 | 959 ft | 76 kts | 15° |
| 2026-04-28 18:54 | 38.90206 | -9.43075 | 992 ft | 74 kts | 13° |
| 2026-04-28 18:54 | 38.90705 | -9.42924 | 1023 ft | 72 kts | 6° |
| 2026-04-28 18:54 | 38.91195 | -9.42683 | 1040 ft | 75 kts | 21° |
| 2026-04-28 18:54 | 38.91648 | -9.42414 | 1116 ft | 72 kts | 20° |
| 2026-04-28 18:55 | 38.92120 | -9.42117 | 1146 ft | 71 kts | 19° |
| 2026-04-28 18:55 | 38.92578 | -9.41890 | 1190 ft | 72 kts | 7° |
| 2026-04-28 18:55 | 38.93114 | -9.41763 | 1103 ft | 79 kts | 4° |
| 2026-04-28 18:55 | 38.93596 | -9.41594 | 1231 ft | 65 kts | 17° |
| 2026-04-28 18:56 | 38.94055 | -9.41409 | 1221 ft | 76 kts | 0° |
| 2026-04-28 18:56 | 38.94570 | -9.41475 | 1239 ft | 69 kts | 345° |
| 2026-04-28 18:56 | 38.95056 | -9.41557 | 1256 ft | 71 kts | 344° |
| 2026-04-28 18:56 | 38.95556 | -9.41750 | 1171 ft | 79 kts | 333° |
| 2026-04-28 18:57 | 38.96032 | -9.42073 | 1130 ft | 73 kts | 324° |
| 2026-04-28 18:57 | 38.96381 | -9.42475 | 1166 ft | 72 kts | 335° |
| 2026-04-28 18:57 | 38.96890 | -9.42261 | 1035 ft | 87 kts | 36° |
| 2026-04-28 18:57 | 38.96991 | -9.41526 | 1009 ft | 85 kts | 107° |
| 2026-04-28 18:58 | 38.96525 | -9.41187 | 1003 ft | 85 kts | 185° |
| 2026-04-28 18:58 | 38.95957 | -9.41110 | 1074 ft | 79 kts | 174° |
| 2026-04-28 18:58 | 38.95411 | -9.41047 | 1134 ft | 80 kts | 177° |
| 2026-04-28 18:58 | 38.94833 | -9.40911 | 1092 ft | 88 kts | 168° |
| 2026-04-28 18:59 | 38.94232 | -9.40690 | 1047 ft | 83 kts | 165° |
| 2026-04-28 18:59 | 38.93668 | -9.40478 | 1016 ft | 92 kts | 159° |
| 2026-04-28 18:59 | 38.93059 | -9.40234 | 946 ft | 88 kts | 170° |
| 2026-04-28 18:59 | 38.92469 | -9.40183 | 983 ft | 80 kts | 182° |
| 2026-04-28 19:00 | 38.91924 | -9.40138 | 1082 ft | 77 kts | 180° |
| 2026-04-28 19:00 | 38.91372 | -9.40051 | 1145 ft | 78 kts | 170° |
| 2026-04-28 19:00 | 38.90823 | -9.39991 | 1222 ft | 75 kts | 185° |
| 2026-04-28 19:00 | 38.90350 | -9.40032 | 1421 ft | 70 kts | 194° |
| 2026-04-28 19:01 | 38.89792 | -9.40117 | 1336 ft | 89 kts | 190° |
| 2026-04-28 19:01 | 38.89190 | -9.40088 | 1319 ft | 87 kts | 161° |
| 2026-04-28 19:01 | 38.88617 | -9.39718 | 1197 ft | 93 kts | 152° |
| 2026-04-28 19:01 | 38.88067 | -9.39366 | 1205 ft | 89 kts | 154° |
| 2026-04-28 19:02 | 38.87518 | -9.39039 | 1234 ft | 83 kts | 156° |
| 2026-04-28 19:02 | 38.86937 | -9.38789 | 1127 ft | 92 kts | 163° |
| 2026-04-28 19:02 | 38.86357 | -9.38623 | 1206 ft | 74 kts | 182° |
| 2026-04-28 19:02 | 38.85840 | -9.38681 | 1302 ft | 75 kts | 191° |
| 2026-04-28 19:03 | 38.85282 | -9.38589 | 1304 ft | 83 kts | 158° |
| 2026-04-28 19:03 | 38.84706 | -9.38424 | 1293 ft | 80 kts | 172° |
| 2026-04-28 19:03 | 38.84158 | -9.38398 | 1308 ft | 86 kts | 183° |
| 2026-04-28 19:03 | 38.83513 | -9.38341 | 1175 ft | 85 kts | 177° |
| 2026-04-28 19:04 | 38.82946 | -9.38354 | 1184 ft | 85 kts | 183° |
| 2026-04-28 19:04 | 38.82339 | -9.38291 | 1142 ft | 86 kts | 174° |
| 2026-04-28 19:04 | 38.81720 | -9.38300 | 1075 ft | 85 kts | 184° |
| 2026-04-28 19:04 | 38.81167 | -9.38362 | 1161 ft | 78 kts | 191° |
| 2026-04-28 19:05 | 38.80613 | -9.38471 | 1205 ft | 79 kts | 191° |
| 2026-04-28 19:05 | 38.80086 | -9.38535 | 1317 ft | 75 kts | 187° |
| 2026-04-28 19:05 | 38.79576 | -9.38273 | 1329 ft | 86 kts | 143° |
| 2026-04-28 19:05 | 38.79107 | -9.37854 | 1333 ft | 77 kts | 148° |
| 2026-04-28 19:06 | 38.78617 | -9.37731 | 1346 ft | 65 kts | 175° |
| 2026-04-28 19:06 | 38.78157 | -9.37675 | 1319 ft | 71 kts | 165° |
| 2026-04-28 19:06 | 38.77643 | -9.37472 | 1197 ft | 80 kts | 153° |
| 2026-04-28 19:06 | 38.77136 | -9.37218 | 1151 ft | 73 kts | 157° |
| 2026-04-28 19:07 | 38.76637 | -9.37053 | 1088 ft | 69 kts | 159° |
| 2026-04-28 19:07 | 38.76169 | -9.36891 | 1018 ft | 71 kts | 152° |
| 2026-04-28 19:07 | 38.75720 | -9.36703 | 976 ft | 65 kts | 154° |
| 2026-04-28 19:07 | 38.75309 | -9.36562 | 930 ft | 53 kts | 171° |
| 2026-04-28 19:08 | 38.74926 | -9.36462 | 857 ft | 53 kts | 171° |
| 2026-04-28 19:08 | 38.74567 | -9.36334 | 809 ft | 53 kts | 158° |
| 2026-04-28 19:08 | 38.74208 | -9.36186 | 714 ft | 53 kts | 154° |
| 2026-04-28 19:08 | 38.73896 | -9.36049 | 645 ft | 44 kts | 175° |
| 2026-04-28 19:09 | 38.73622 | -9.35947 | 576 ft | 40 kts | 175° |
| 2026-04-28 19:09 | 38.73321 | -9.35831 | 473 ft | 46 kts | 171° |
| 2026-04-28 19:09 | 38.73048 | -9.35712 | 382 ft | 31 kts | 177° |
| 2026-04-28 19:09 | 38.72870 | -9.35653 | 350 ft | 22 kts | 187° |
| 2026-04-28 19:10 | 38.72760 | -9.35614 | 341 ft | 12 kts | 178° |
| 2026-04-28 19:10 | 38.72657 | -9.35574 | 338 ft | 13 kts | 194° |
| 2026-04-28 19:10 | 38.72556 | -9.35540 | 346 ft | 9 kts | 235° |
| 2026-04-28 19:10 | 38.72531 | -9.35595 | 354 ft | 1 kts | 276° |
| 2026-04-28 19:11 | 38.72528 | -9.35629 | 330 ft | 7 kts | 311° |
| 2026-04-28 19:11 | 38.72582 | -9.35654 | 338 ft | 8 kts | 357° |
| 2026-04-28 19:11 | 38.72605 | -9.35664 | 323 ft | 0 kts | 345° |